• Join FlightAware (Why Join?)
  • Login
  • US Flag 
10:51PM EDT


 

Airport Tracker/Info


-or-


 

Live Flight TrackerFlight Track Log ✈ SWA16 ✈ 26-Apr-2013 ✈ KHOU - KDAL

Flight Track Log - Related Links

Times and Time Zones

All times are in EDT time to prevent confusion due to time zone crossing. See the SWA16 flight status page for this flight to view local times or setup timezone preferences in your user account.

Time Position Orientation Groundspeed Altitude Reporting Facility
EDT Latitude Longitude Course Direction KTS MPH feet Rate Location/Type
11:12AM 29.6314 -95.2919 47° Northeast 118 136 800  Level Houston Center
11:14AM 29.6597 -95.2572 47° Northeast 252 290 3,600 1,740 Climbing Houston Center
11:15AM 29.7197 -95.2625 356° North 258 297 4,900 2,460 Climbing Houston Center
11:16AM 29.8061 -95.2739 353° North 306 352 8,500 4,140 Climbing Houston Center
11:17AM 29.9061 -95.3033 346° North 309 356 13,500 3,720 Climbing Houston Center
11:18AM 29.9908 -95.3267 347° North 310 357 16,300 2,820 Climbing Houston Center
11:19AM 30.0803 -95.3506 347° North 323 372 19,400 2,820 Climbing Houston Center
11:20AM 30.1717 -95.3761 346° North 333 383 22,200 1,740 Climbing Houston Center
11:21AM 30.2658 -95.4022 347° North 344 396 23,000 720 Climbing Houston Center
11:22AM 30.3608 -95.4286 347° North 348 400 23,800 1,260 Climbing Houston Center
11:23AM 30.4819 -95.4614 347° North 367 422 25,700 1,500 Climbing Houston Center
11:24AM 30.5933 -95.4881 348° North 399 459 26,900 1,140 Climbing Houston Center
11:25AM 30.7183 -95.5167 349° North 435 501 28,100 1,680 Climbing Houston Center
11:26AM 30.8453 -95.5450 349° North 454 522 30,400 1,860 Climbing Houston Center
11:27AM 30.9728 -95.5744 349° North 463 533 32,000 720 Climbing Houston Center
11:28AM 31.0969 -95.6031 349° North 455 524 32,000  Level Houston Center
11:29AM 31.2433 -95.6367 349° North 447 514 32,000 -300 Level Houston Center
11:30AM 31.3647 -95.6681 348° North 445 512 31,500 -780 Descending Houston Center
11:31AM 31.4711 -95.7372 331° Northwest 437 503 30,500 -1,620 Descending Houston Center
11:32AM 31.5753 -95.8067 330° Northwest 430 495 28,200 -3,180 Descending Houston Center
11:33AM 31.6792 -95.8772 330° Northwest 430 495 24,000 -2,880 Descending Houston Center
11:34AM 31.7842 -95.9444 331° Northwest 428 493 22,300 -2,040 Descending Houston Center
11:35AM 31.8803 -96.0103 330° Northwest 404 465 19,900 -2,520 Descending Houston Center
11:36AM 31.9928 -96.0869 330° Northwest 389 448 17,100 -2,640 Descending Houston Center
11:37AM 32.0872 -96.1500 331° Northwest 377 434 14,500 -2,400 Descending Houston Center
11:39AM 32.1769 -96.2106 330° Northwest 371 427 12,200 -1,860 Descending Houston Center
11:39AM 32.2603 -96.2636 332° Northwest 365 420 11,000 -1,380 Descending Fort Worth Center